sensor_id;sensor_type;location;lat;lon;timestamp;pressure;altitude;pressure_sealevel;temperature;humidity
54439;BME280;40347;53.848;27.498;2023-05-02T00:01:18;1017.9;;;6.6;49.1
54439;BME280;40347;53.848;27.498;2023-05-02T00:06:20;1017.9;;;6.6;49.3
54439;BME280;40347;53.848;27.498;2023-05-02T00:11:10;1018;;;6.5;49.8
54439;BME280;40347;53.848;27.498;2023-05-02T00:16:10;1018;;;6.6;49.8
54439;BME280;40347;53.848;27.498;2023-05-02T00:21:20;1018;;;6.5;49.8
54439;BME280;40347;53.848;27.498;2023-05-02T00:26:10;1018.1;;;6.5;49.9
54439;BME280;40347;53.848;27.498;2023-05-02T00:31:22;1018;;;6.4;50.2
54439;BME280;40347;53.848;27.498;2023-05-02T00:36:26;1018;;;6.3;50.4
54439;BME280;40347;53.848;27.498;2023-05-02T00:41:40;1018;;;6.3;50.8
54439;BME280;40347;53.848;27.498;2023-05-02T00:46:30;1018;;;6.3;50.8
54439;BME280;40347;53.848;27.498;2023-05-02T00:51:24;1017.9;;;6.3;50.6
54439;BME280;40347;53.848;27.498;2023-05-02T00:56:10;1017.9;;;6.2;50.8
54439;BME280;40347;53.848;27.498;2023-05-02T01:01:22;1017.9;;;6.1;50.9
54439;BME280;40347;53.848;27.498;2023-05-02T01:06:27;1017.9;;;6.2;50.8
54439;BME280;40347;53.848;27.498;2023-05-02T01:11:59;1017.9;;;6.1;51
54439;BME280;40347;53.848;27.498;2023-05-02T01:16:24;1017.9;;;6.1;50.9
54439;BME280;40347;53.848;27.498;2023-05-02T01:21:34;1017.9;;;6.1;51
54439;BME280;40347;53.848;27.498;2023-05-02T01:26:23;1017.9;;;6;51.1
54439;BME280;40347;53.848;27.498;2023-05-02T01:31:20;1017.9;;;6;51.3
54439;BME280;40347;53.848;27.498;2023-05-02T01:36:24;1017.9;;;6;51.5
54439;BME280;40347;53.848;27.498;2023-05-02T01:41:10;1017.9;;;6;51.5
54439;BME280;40347;53.848;27.498;2023-05-02T01:46:10;1017.9;;;6;51.5
54439;BME280;40347;53.848;27.498;2023-05-02T01:51:10;1017.9;;;5.9;51.6
54439;BME280;40347;53.848;27.498;2023-05-02T01:56:10;1017.9;;;5.9;51.6
54439;BME280;40347;53.848;27.498;2023-05-02T02:01:10;1017.9;;;5.8;51.7
54439;BME280;40347;53.848;27.498;2023-05-02T02:06:10;1017.9;;;5.9;51.6
54439;BME280;40347;53.848;27.498;2023-05-02T02:11:10;1017.9;;;5.8;51.7
54439;BME280;40347;53.848;27.498;2023-05-02T02:16:24;1017.9;;;5.8;51.4
54439;BME280;40347;53.848;27.498;2023-05-02T02:21:10;1017.8;;;5.7;51.4
54439;BME280;40347;53.848;27.498;2023-05-02T02:26:10;1017.9;;;5.7;51.7
54439;BME280;40347;53.848;27.498;2023-05-02T02:31:28;1017.8;;;5.7;51.8
54439;BME280;40347;53.848;27.498;2023-05-02T02:36:52;1017.8;;;5.7;51.8
54439;BME280;40347;53.848;27.498;2023-05-02T02:41:11;1017.9;;;5.7;51.9
54439;BME280;40347;53.848;27.498;2023-05-02T02:46:13;1017.8;;;5.7;51.5
54439;BME280;40347;53.848;27.498;2023-05-02T02:51:24;1017.9;;;5.8;51.2
54439;BME280;40347;53.848;27.498;2023-05-02T02:56:35;1017.9;;;5.9;51
54439;BME280;40347;53.848;27.498;2023-05-02T03:01:10;1017.9;;;5.9;51.2
54439;BME280;40347;53.848;27.498;2023-05-02T03:06:10;1017.9;;;6;51.1
54439;BME280;40347;53.848;27.498;2023-05-02T03:11:44;1018;;;6.1;51.1
54439;BME280;40347;53.848;27.498;2023-05-02T03:16:29;1018;;;6.2;50.7
54439;BME280;40347;53.848;27.498;2023-05-02T03:21:28;1018.1;;;6.4;50.5
54439;BME280;40347;53.848;27.498;2023-05-02T03:26:28;1018.1;;;6.5;50.7
54439;BME280;40347;53.848;27.498;2023-05-02T03:31:24;1018;;;6.6;50.5
54439;BME280;40347;53.848;27.498;2023-05-02T03:36:16;1018;;;6.8;50
54439;BME280;40347;53.848;27.498;2023-05-02T03:41:20;1018;;;6.9;50.1
54439;BME280;40347;53.848;27.498;2023-05-02T03:46:22;1018;;;7;49.7
54439;BME280;40347;53.848;27.498;2023-05-02T03:51:10;1018;;;7.2;49.5
54439;BME280;40347;53.848;27.498;2023-05-02T03:56:30;1018;;;7.4;49.4
54439;BME280;40347;53.848;27.498;2023-05-02T04:01:13;1018;;;7.7;49
54439;BME280;40347;53.848;27.498;2023-05-02T04:06:10;1018;;;8.2;48.1
54439;BME280;40347;53.848;27.498;2023-05-02T04:11:25;1018;;;8.4;47.7
54439;BME280;40347;53.848;27.498;2023-05-02T04:16:10;1018;;;8.4;47.7
54439;BME280;40347;53.848;27.498;2023-05-02T04:21:20;1018;;;8.5;47.9
54439;BME280;40347;53.848;27.498;2023-05-02T04:26:24;1018;;;8.7;47.8
54439;BME280;40347;53.848;27.498;2023-05-02T04:31:36;1018;;;9.2;47.3
54439;BME280;40347;53.848;27.498;2023-05-02T04:36:10;1018;;;9.5;47
54439;BME280;40347;53.848;27.498;2023-05-02T04:41:40;1018.1;;;9.5;47.1
54439;BME280;40347;53.848;27.498;2023-05-02T04:46:16;1018.1;;;9.4;47.2
54439;BME280;40347;53.848;27.498;2023-05-02T04:51:18;1018;;;9.4;47.6
54439;BME280;40347;53.848;27.498;2023-05-02T04:56:16;1018;;;9.7;47.3
54439;BME280;40347;53.848;27.498;2023-05-02T05:01:16;1018;;;10.1;46.9
54439;BME280;40347;53.848;27.498;2023-05-02T05:06:32;1017.9;;;10.6;46.2
54439;BME280;40347;53.848;27.498;2023-05-02T05:11:22;1018;;;11.1;45.4
54439;BME280;40347;53.848;27.498;2023-05-02T05:16:32;1017.9;;;11.5;45.1
54439;BME280;40347;53.848;27.498;2023-05-02T05:21:32;1017.9;;;11.7;44.9
54439;BME280;40347;53.848;27.498;2023-05-02T05:26:10;1017.9;;;11.7;44.4
54439;BME280;40347;53.848;27.498;2023-05-02T05:31:10;1017.9;;;11.8;44.2
54439;BME280;40347;53.848;27.498;2023-05-02T05:36:32;1017.8;;;12;44.2
54439;BME280;40347;53.848;27.498;2023-05-02T05:41:24;1017.7;;;12.3;43.9
54439;BME280;40347;53.848;27.498;2023-05-02T05:46:10;1017.7;;;12.5;43.4
54439;BME280;40347;53.848;27.498;2023-05-02T05:51:30;1017.6;;;12.7;43.4
54439;BME280;40347;53.848;27.498;2023-05-02T05:56:30;1017.6;;;12.9;42.9
54439;BME280;40347;53.848;27.498;2023-05-02T06:01:32;1017.5;;;13.1;42.9
54439;BME280;40347;53.848;27.498;2023-05-02T06:06:10;1017.5;;;13.2;42.5
54439;BME280;40347;53.848;27.498;2023-05-02T06:11:20;1017.5;;;13.5;42.1
54439;BME280;40347;53.848;27.498;2023-05-02T06:16:10;1017.5;;;13.9;41.8
54439;BME280;40347;53.848;27.498;2023-05-02T06:21:56;1017.4;;;14.2;41.5
54439;BME280;40347;53.848;27.498;2023-05-02T06:26:10;1017.4;;;14.5;40.8
54439;BME280;40347;53.848;27.498;2023-05-02T06:31:19;1017.4;;;14.9;40.5
54439;BME280;40347;53.848;27.498;2023-05-02T06:36:10;1017.3;;;15.2;39.9
54439;BME280;40347;53.848;27.498;2023-05-02T06:41:16;1017.2;;;15.5;40.1
54439;BME280;40347;53.848;27.498;2023-05-02T06:46:58;1017.2;;;15.6;39.5
54439;BME280;40347;53.848;27.498;2023-05-02T06:51:10;1017.2;;;15.8;38.7
54439;BME280;40347;53.848;27.498;2023-05-02T06:56:16;1017.1;;;16.1;38.3
54439;BME280;40347;53.848;27.498;2023-05-02T07:01:10;1017.1;;;16.3;38.3
54439;BME280;40347;53.848;27.498;2023-05-02T07:06:10;1017.1;;;16.4;37.8
54439;BME280;40347;53.848;27.498;2023-05-02T07:11:10;1017;;;16.6;38
54439;BME280;40347;53.848;27.498;2023-05-02T07:16:10;1017.1;;;16.8;37.6
54439;BME280;40347;53.848;27.498;2023-05-02T07:21:32;1017.1;;;17;37.2
54439;BME280;40347;53.848;27.498;2023-05-02T07:26:16;1017;;;17.3;36.9
54439;BME280;40347;53.848;27.498;2023-05-02T07:31:24;1016.9;;;17.5;36
54439;BME280;40347;53.848;27.498;2023-05-02T07:36:22;1017;;;17.6;35.7
54439;BME280;40347;53.848;27.498;2023-05-02T07:41:18;1016.9;;;17.7;35.6
54439;BME280;40347;53.848;27.498;2023-05-02T07:46:24;1016.9;;;17.7;35.4
54439;BME280;40347;53.848;27.498;2023-05-02T07:51:10;1016.8;;;17.8;35
54439;BME280;40347;53.848;27.498;2023-05-02T07:56:10;1016.8;;;17.9;35
54439;BME280;40347;53.848;27.498;2023-05-02T08:01:24;1016.7;;;18;35.2
54439;BME280;40347;53.848;27.498;2023-05-02T08:06:16;1016.7;;;18.1;35.1
54439;BME280;40347;53.848;27.498;2023-05-02T08:11:32;1016.7;;;18.2;34.7
54439;BME280;40347;53.848;27.498;2023-05-02T08:16:10;1016.6;;;18.3;34.4
54439;BME280;40347;53.848;27.498;2023-05-02T08:21:10;1016.6;;;18.4;34
54439;BME280;40347;53.848;27.498;2023-05-02T08:26:26;1016.6;;;18.6;33.8
54439;BME280;40347;53.848;27.498;2023-05-02T08:31:22;1016.6;;;18.7;33.4
54439;BME280;40347;53.848;27.498;2023-05-02T08:36:16;1016.5;;;18.8;33.9
54439;BME280;40347;53.848;27.498;2023-05-02T08:41:10;1016.5;;;18.6;33.3
54439;BME280;40347;53.848;27.498;2023-05-02T08:46:10;1016.5;;;18.4;33.7
54439;BME280;40347;53.848;27.498;2023-05-02T08:51:16;1016.5;;;18.1;33.3
54439;BME280;40347;53.848;27.498;2023-05-02T08:56:11;1016.4;;;17.8;33.1
54439;BME280;40347;53.848;27.498;2023-05-02T09:01:33;1016.4;;;17.5;33.8
54439;BME280;40347;53.848;27.498;2023-05-02T09:06:26;1016.3;;;17.4;33.9
54439;BME280;40347;53.848;27.498;2023-05-02T09:11:36;1016.2;;;17.4;33.6
54439;BME280;40347;53.848;27.498;2023-05-02T09:16:11;1016.1;;;17.3;33.5
54439;BME280;40347;53.848;27.498;2023-05-02T09:21:12;1016;;;17.4;33.8
54439;BME280;40347;53.848;27.498;2023-05-02T09:26:15;1015.9;;;17.6;34
54439;BME280;40347;53.848;27.498;2023-05-02T09:31:11;1015.9;;;17.7;33.1
54439;BME280;40347;53.848;27.498;2023-05-02T09:36:11;1015.8;;;17.7;33.4
54439;BME280;40347;53.848;27.498;2023-05-02T09:41:10;1015.7;;;17.6;33.3
54439;BME280;40347;53.848;27.498;2023-05-02T09:46:10;1015.7;;;17.5;33.4
54439;BME280;40347;53.848;27.498;2023-05-02T09:51:36;1015.6;;;17.4;33.6
54439;BME280;40347;53.848;27.498;2023-05-02T09:56:24;1015.5;;;17.5;33.7
54439;BME280;40347;53.848;27.498;2023-05-02T10:01:30;1015.5;;;17.6;33.6
54439;BME280;40347;53.848;27.498;2023-05-02T10:06:10;1015.5;;;17.7;33.6
54439;BME280;40347;53.848;27.498;2023-05-02T10:11:28;1015.4;;;17.8;33.8
54439;BME280;40347;53.848;27.498;2023-05-02T10:16:11;1015.4;;;17.9;33.8
54439;BME280;40347;53.848;27.498;2023-05-02T10:21:10;1015.4;;;18;33.7
54439;BME280;40347;53.848;27.498;2023-05-02T10:26:36;1015.4;;;18.1;33.3
54439;BME280;40347;53.848;27.498;2023-05-02T10:31:17;1015.3;;;18.2;32.7
54439;BME280;40347;53.848;27.498;2023-05-02T10:36:10;1015.2;;;18.4;32.3
54439;BME280;40347;53.848;27.498;2023-05-02T10:41:36;1015.1;;;18.6;32.2
54439;BME280;40347;53.848;27.498;2023-05-02T10:46:42;1015.1;;;18.8;32
54439;BME280;40347;53.848;27.498;2023-05-02T10:51:30;1015.1;;;19;32
54439;BME280;40347;53.848;27.498;2023-05-02T10:56:22;1015;;;19.2;32.2
54439;BME280;40347;53.848;27.498;2023-05-02T11:01:46;1014.9;;;19.3;31.9
54439;BME280;40347;53.848;27.498;2023-05-02T11:06:27;1014.8;;;19.3;32.1
54439;BME280;40347;53.848;27.498;2023-05-02T11:11:42;1014.7;;;19.2;31.6
54439;BME280;40347;53.848;27.498;2023-05-02T11:16:10;1014.7;;;19.3;32
54439;BME280;40347;53.848;27.498;2023-05-02T11:21:36;1014.6;;;19.2;31.9
54439;BME280;40347;53.848;27.498;2023-05-02T11:26:19;1014.4;;;19.3;31.8
54439;BME280;40347;53.848;27.498;2023-05-02T11:31:52;1014.4;;;19.2;31.2
54439;BME280;40347;53.848;27.498;2023-05-02T11:36:10;1014.3;;;19.2;31.1
54439;BME280;40347;53.848;27.498;2023-05-02T11:41:10;1014.2;;;19.1;31.5
54439;BME280;40347;53.848;27.498;2023-05-02T11:46:24;1014.2;;;19.1;31.5
54439;BME280;40347;53.848;27.498;2023-05-02T11:51:10;1014.1;;;19.1;31.6
54439;BME280;40347;53.848;27.498;2023-05-02T11:56:24;1014;;;19.1;31.6
54439;BME280;40347;53.848;27.498;2023-05-02T12:01:24;1013.9;;;19.1;31.4
54439;BME280;40347;53.848;27.498;2023-05-02T12:06:43;1013.9;;;19.2;31.8
54439;BME280;40347;53.848;27.498;2023-05-02T12:11:11;1013.9;;;19.2;31.7
54439;BME280;40347;53.848;27.498;2023-05-02T12:16:24;1013.8;;;19.3;31.9
54439;BME280;40347;53.848;27.498;2023-05-02T12:21:10;1013.9;;;19.3;31.9
54439;BME280;40347;53.848;27.498;2023-05-02T12:26:18;1013.8;;;19.3;31.9
54439;BME280;40347;53.848;27.498;2023-05-02T12:31:24;1013.8;;;19.4;31.7
54439;BME280;40347;53.848;27.498;2023-05-02T12:36:22;1013.8;;;19.4;31.8
54439;BME280;40347;53.848;27.498;2023-05-02T12:41:18;1013.7;;;19.4;32.1
54439;BME280;40347;53.848;27.498;2023-05-02T12:46:32;1013.7;;;19.5;32.2
54439;BME280;40347;53.848;27.498;2023-05-02T12:51:24;1013.6;;;19.6;31.7
54439;BME280;40347;53.848;27.498;2023-05-02T12:56:10;1013.5;;;19.6;31.5
54439;BME280;40347;53.848;27.498;2023-05-02T13:01:31;1013.5;;;19.6;31.8
54439;BME280;40347;53.848;27.498;2023-05-02T13:06:10;1013.4;;;19.7;32.1
54439;BME280;40347;53.848;27.498;2023-05-02T13:11:18;1013.3;;;19.8;32
54439;BME280;40347;53.848;27.498;2023-05-02T13:16:22;1013.4;;;19.9;31.9
54439;BME280;40347;53.848;27.498;2023-05-02T13:21:10;1013.3;;;19.9;32.2
54439;BME280;40347;53.848;27.498;2023-05-02T13:26:10;1013.2;;;20;32.2
54439;BME280;40347;53.848;27.498;2023-05-02T13:31:22;1013.2;;;19.9;32.4
54439;BME280;40347;53.848;27.498;2023-05-02T13:36:10;1013.1;;;19.9;32.7
54439;BME280;40347;53.848;27.498;2023-05-02T13:41:10;1013;;;20;32.3
54439;BME280;40347;53.848;27.498;2023-05-02T13:46:22;1013;;;20.3;32.4
54439;BME280;40347;53.848;27.498;2023-05-02T13:51:30;1012.9;;;20.5;32.5
54439;BME280;40347;53.848;27.498;2023-05-02T13:56:40;1012.9;;;20.7;32.6
54439;BME280;40347;53.848;27.498;2023-05-02T14:01:22;1012.8;;;20.7;32.4
54439;BME280;40347;53.848;27.498;2023-05-02T14:06:18;1012.7;;;20.8;32.4
54439;BME280;40347;53.848;27.498;2023-05-02T14:11:36;1012.6;;;20.8;32.4
54439;BME280;40347;53.848;27.498;2023-05-02T14:16:38;1012.6;;;20.9;32.8
54439;BME280;40347;53.848;27.498;2023-05-02T14:21:10;1012.5;;;20.8;32.9
54439;BME280;40347;53.848;27.498;2023-05-02T14:26:10;1012.5;;;20.7;33
54439;BME280;40347;53.848;27.498;2023-05-02T14:31:16;1012.4;;;20.4;33.3
54439;BME280;40347;53.848;27.498;2023-05-02T14:36:10;1012.3;;;20.3;33.8
54439;BME280;40347;53.848;27.498;2023-05-02T14:41:24;1012.3;;;20.2;33.9
54439;BME280;40347;53.848;27.498;2023-05-02T14:46:22;1012.3;;;20.2;34.2
54439;BME280;40347;53.848;27.498;2023-05-02T14:51:10;1012.2;;;20;34.6
54439;BME280;40347;53.848;27.498;2023-05-02T14:56:22;1012.2;;;19.9;35
54439;BME280;40347;53.848;27.498;2023-05-02T15:01:15;1012;;;19.8;35.1
54439;BME280;40347;53.848;27.498;2023-05-02T15:06:10;1012;;;19.9;34.7
54439;BME280;40347;53.848;27.498;2023-05-02T15:11:22;1012;;;19.9;34.5
54439;BME280;40347;53.848;27.498;2023-05-02T15:16:18;1011.9;;;20.1;34.3
54439;BME280;40347;53.848;27.498;2023-05-02T15:21:10;1012;;;20.1;34.4
54439;BME280;40347;53.848;27.498;2023-05-02T15:26:22;1012;;;20.2;34.2
54439;BME280;40347;53.848;27.498;2023-05-02T15:31:10;1012;;;20.4;33.9
54439;BME280;40347;53.848;27.498;2023-05-02T15:36:11;1012;;;20.4;33.8
54439;BME280;40347;53.848;27.498;2023-05-02T15:41:36;1012;;;20.3;33.6
54439;BME280;40347;53.848;27.498;2023-05-02T15:46:18;1011.9;;;20.4;33.4
54439;BME280;40347;53.848;27.498;2023-05-02T15:51:30;1011.9;;;20.4;33.5
54439;BME280;40347;53.848;27.498;2023-05-02T15:56:30;1012;;;20.3;33.6
54439;BME280;40347;53.848;27.498;2023-05-02T16:01:18;1012;;;20.1;33.5
54439;BME280;40347;53.848;27.498;2023-05-02T16:06:24;1012;;;20;33.5
54439;BME280;40347;53.848;27.498;2023-05-02T16:11:24;1012;;;19.8;33.6
54439;BME280;40347;53.848;27.498;2023-05-02T16:16:10;1012;;;19.6;33.4
54439;BME280;40347;53.848;27.498;2023-05-02T16:21:38;1012.1;;;19.5;33.6
54439;BME280;40347;53.848;27.498;2023-05-02T16:26:10;1012.2;;;19.4;33.7
54439;BME280;40347;53.848;27.498;2023-05-02T16:31:10;1012.5;;;19.3;34.1
54439;BME280;40347;53.848;27.498;2023-05-02T16:36:10;1012.7;;;18.5;42.9
54439;BME280;40347;53.848;27.498;2023-05-02T16:41:10;1013.3;;;16.6;52.8
54439;BME280;40347;53.848;27.498;2023-05-02T16:46:10;1013.8;;;15.1;59.4
54439;BME280;40347;53.848;27.498;2023-05-02T16:51:22;1013.9;;;14.4;60
54439;BME280;40347;53.848;27.498;2023-05-02T16:56:30;1013.9;;;13.9;66
54439;BME280;40347;53.848;27.498;2023-05-02T17:01:11;1013.8;;;13.7;68.8
54439;BME280;40347;53.848;27.498;2023-05-02T17:06:10;1013.8;;;13.6;65
54439;BME280;40347;53.848;27.498;2023-05-02T17:11:16;1014.1;;;13.7;65.5
54439;BME280;40347;53.848;27.498;2023-05-02T17:16:10;1014.4;;;13.7;64.6
54439;BME280;40347;53.848;27.498;2023-05-02T17:21:28;1014.5;;;13.7;66.1
54439;BME280;40347;53.848;27.498;2023-05-02T17:26:10;1014.5;;;13.6;65.9
54439;BME280;40347;53.848;27.498;2023-05-02T17:31:24;1014.5;;;13.5;66.7
54439;BME280;40347;53.848;27.498;2023-05-02T17:36:34;1014.5;;;13.4;67.2
54439;BME280;40347;53.848;27.498;2023-05-02T17:41:10;1014.5;;;13.3;68
54439;BME280;40347;53.848;27.498;2023-05-02T17:46:10;1014.4;;;13.3;68.3
54439;BME280;40347;53.848;27.498;2023-05-02T17:51:10;1014.5;;;13.4;68.6
54439;BME280;40347;53.848;27.498;2023-05-02T17:56:30;1014.5;;;13.4;69
54439;BME280;40347;53.848;27.498;2023-05-02T18:01:11;1014.5;;;13.4;69.2
54439;BME280;40347;53.848;27.498;2023-05-02T18:06:16;1014.6;;;13.3;70.5
54439;BME280;40347;53.848;27.498;2023-05-02T18:11:12;1014.6;;;13.1;71.4
54439;BME280;40347;53.848;27.498;2023-05-02T18:16:10;1014.6;;;13;71.6
54439;BME280;40347;53.848;27.498;2023-05-02T18:21:10;1014.6;;;13;71.3
54439;BME280;40347;53.848;27.498;2023-05-02T18:26:54;1014.6;;;12.8;71.7
54439;BME280;40347;53.848;27.498;2023-05-02T18:31:22;1014.6;;;12.8;72.1
54439;BME280;40347;53.848;27.498;2023-05-02T18:36:11;1014.6;;;12.8;72.7
54439;BME280;40347;53.848;27.498;2023-05-02T18:41:32;1014.7;;;12.6;73.5
54439;BME280;40347;53.848;27.498;2023-05-02T18:46:11;1014.8;;;12.6;74.2
54439;BME280;40347;53.848;27.498;2023-05-02T18:51:20;1014.9;;;12.6;73.7
54439;BME280;40347;53.848;27.498;2023-05-02T18:56:24;1015;;;12.6;74.5
54439;BME280;40347;53.848;27.498;2023-05-02T19:01:23;1014.9;;;12.6;74.8
54439;BME280;40347;53.848;27.498;2023-05-02T19:06:12;1014.9;;;12.5;73.9
54439;BME280;40347;53.848;27.498;2023-05-02T19:11:38;1015;;;12.6;73.2
54439;BME280;40347;53.848;27.498;2023-05-02T19:16:11;1014.9;;;12.5;73.7
54439;BME280;40347;53.848;27.498;2023-05-02T19:21:11;1015.1;;;12.5;73.8
54439;BME280;40347;53.848;27.498;2023-05-02T19:26:22;1015.2;;;12.4;73.8
54439;BME280;40347;53.848;27.498;2023-05-02T19:31:17;1015.2;;;12.4;73.1
54439;BME280;40347;53.848;27.498;2023-05-02T19:36:10;1015.4;;;12.4;73.8
54439;BME280;40347;53.848;27.498;2023-05-02T19:41:23;1015.4;;;12.3;73.3
54439;BME280;40347;53.848;27.498;2023-05-02T19:46:38;1015.5;;;12.4;72.9
54439;BME280;40347;53.848;27.498;2023-05-02T19:51:10;1015.5;;;12.3;73.2
54439;BME280;40347;53.848;27.498;2023-05-02T19:56:30;1015.5;;;12.2;73.8
54439;BME280;40347;53.848;27.498;2023-05-02T20:01:24;1015.5;;;12.2;74.1
54439;BME280;40347;53.848;27.498;2023-05-02T20:06:16;1015.6;;;12.1;74.4
54439;BME280;40347;53.848;27.498;2023-05-02T20:11:22;1015.7;;;12.1;74.9
54439;BME280;40347;53.848;27.498;2023-05-02T20:16:11;1015.7;;;12.2;75.3
54439;BME280;40347;53.848;27.498;2023-05-02T20:21:36;1015.6;;;12.2;75
54439;BME280;40347;53.848;27.498;2023-05-02T20:26:16;1015.6;;;12.2;74.9
54439;BME280;40347;53.848;27.498;2023-05-02T20:31:44;1015.7;;;12.1;74.7
54439;BME280;40347;53.848;27.498;2023-05-02T20:36:24;1015.7;;;12;75.1
54439;BME280;40347;53.848;27.498;2023-05-02T20:41:22;1015.6;;;11.9;75.6
54439;BME280;40347;53.848;27.498;2023-05-02T20:46:18;1015.6;;;11.8;75.5
54439;BME280;40347;53.848;27.498;2023-05-02T20:51:26;1015.5;;;11.8;75.5
54439;BME280;40347;53.848;27.498;2023-05-02T20:56:11;1015.6;;;11.7;75.8
54439;BME280;40347;53.848;27.498;2023-05-02T21:01:30;1015.6;;;11.6;76.5
54439;BME280;40347;53.848;27.498;2023-05-02T21:06:24;1015.7;;;11.6;76.4
54439;BME280;40347;53.848;27.498;2023-05-02T21:11:16;1015.7;;;11.6;76.4
54439;BME280;40347;53.848;27.498;2023-05-02T21:16:12;1015.7;;;11.6;76
54439;BME280;40347;53.848;27.498;2023-05-02T21:21:11;1015.7;;;11.5;75.7
54439;BME280;40347;53.848;27.498;2023-05-02T21:26:10;1015.7;;;11.6;75.7
54439;BME280;40347;53.848;27.498;2023-05-02T21:31:36;1015.7;;;11.5;75.7
54439;BME280;40347;53.848;27.498;2023-05-02T21:36:34;1015.7;;;11.5;75.9
54439;BME280;40347;53.848;27.498;2023-05-02T21:41:16;1015.7;;;11.5;75.9
54439;BME280;40347;53.848;27.498;2023-05-02T21:46:24;1015.8;;;11.4;76.1
54439;BME280;40347;53.848;27.498;2023-05-02T21:51:22;1015.9;;;11.4;75.9
54439;BME280;40347;53.848;27.498;2023-05-02T21:56:10;1015.9;;;11.4;76.4
54439;BME280;40347;53.848;27.498;2023-05-02T22:01:10;1015.9;;;11.4;76.5
54439;BME280;40347;53.848;27.498;2023-05-02T22:06:22;1015.9;;;11.4;76.7
54439;BME280;40347;53.848;27.498;2023-05-02T22:11:10;1015.9;;;11.4;75.9
54439;BME280;40347;53.848;27.498;2023-05-02T22:16:24;1015.9;;;11.4;76.2
54439;BME280;40347;53.848;27.498;2023-05-02T22:21:10;1015.9;;;11.3;75.9
54439;BME280;40347;53.848;27.498;2023-05-02T22:26:47;1015.8;;;11.4;76.3
54439;BME280;40347;53.848;27.498;2023-05-02T22:31:10;1015.9;;;11.3;76.7
54439;BME280;40347;53.848;27.498;2023-05-02T22:36:16;1016;;;11.4;75.8
54439;BME280;40347;53.848;27.498;2023-05-02T22:41:18;1016.1;;;11.4;75.3
54439;BME280;40347;53.848;27.498;2023-05-02T22:46:10;1016.1;;;11.4;74.6
54439;BME280;40347;53.848;27.498;2023-05-02T22:51:10;1016.1;;;11.4;74.8
54439;BME280;40347;53.848;27.498;2023-05-02T22:56:10;1016.2;;;11.4;75.3
54439;BME280;40347;53.848;27.498;2023-05-02T23:01:30;1016.3;;;11.4;75.2
54439;BME280;40347;53.848;27.498;2023-05-02T23:06:24;1016.3;;;11.4;74.8
54439;BME280;40347;53.848;27.498;2023-05-02T23:11:10;1016.4;;;11.4;74.9
54439;BME280;40347;53.848;27.498;2023-05-02T23:16:10;1016.4;;;11.4;75.2
54439;BME280;40347;53.848;27.498;2023-05-02T23:21:12;1016.4;;;11.3;75.5
54439;BME280;40347;53.848;27.498;2023-05-02T23:26:24;1016.4;;;11.4;75.7
54439;BME280;40347;53.848;27.498;2023-05-02T23:31:10;1016.4;;;11.3;76.2
54439;BME280;40347;53.848;27.498;2023-05-02T23:36:26;1016.6;;;11.3;75.7
54439;BME280;40347;53.848;27.498;2023-05-02T23:41:10;1016.7;;;11.3;75.4
54439;BME280;40347;53.848;27.498;2023-05-02T23:46:46;1016.8;;;11.4;75.2
54439;BME280;40347;53.848;27.498;2023-05-02T23:51:11;1016.9;;;11.5;75
54439;BME280;40347;53.848;27.498;2023-05-02T23:56:10;1016.9;;;11.5;74.9
